createdAt,value
2022-12-13T00:01:26.076Z,-2.96
2022-12-13T00:06:57.809Z,-2.9
2022-12-13T00:12:29.588Z,-3.02
2022-12-13T00:18:01.338Z,-2.98
2022-12-13T00:23:39.430Z,-3.05
2022-12-13T00:29:11.113Z,-3.05
2022-12-13T00:34:43.462Z,-2.99
2022-12-13T00:40:14.590Z,-3.07
2022-12-13T00:45:46.336Z,-3.03
2022-12-13T00:51:18.223Z,-3.27
2022-12-13T00:56:49.752Z,-3.19
2022-12-13T01:02:21.498Z,-3.09
2022-12-13T01:07:53.226Z,-3.08
2022-12-13T01:13:25.083Z,-3.08
2022-12-13T01:18:56.807Z,-3.08
2022-12-13T01:24:34.928Z,-3.36
2022-12-13T01:30:06.464Z,-3.59
2022-12-13T01:35:38.175Z,-3.69
2022-12-13T01:41:17.335Z,-3.43
2022-12-13T01:46:41.901Z,-3.5
2022-12-13T01:52:13.350Z,-3.64
2022-12-13T01:57:45.757Z,-3.89
2022-12-13T02:03:21.037Z,-3.47
2022-12-13T02:08:56.580Z,-3.35
2022-12-13T02:14:20.260Z,-3.5
2022-12-13T02:19:52.000Z,-3.36
2022-12-13T02:25:28.439Z,-3.44
2022-12-13T02:30:59.929Z,-3.38
2022-12-13T02:36:36.092Z,-3.59
2022-12-13T02:42:03.315Z,-3.53
2022-12-13T02:47:35.238Z,-3.51
2022-12-13T02:53:06.847Z,-3.85
2022-12-13T02:58:38.693Z,-4.0
2022-12-13T03:04:10.218Z,-3.65
2022-12-13T03:09:41.963Z,-3.87
2022-12-13T03:15:13.856Z,-3.96
2022-12-13T03:20:45.447Z,-4.15
2022-12-13T03:26:23.549Z,-3.93
2022-12-13T03:31:55.266Z,-4.11
2022-12-13T03:37:27.165Z,-3.97
2022-12-13T03:42:58.852Z,-3.96
2022-12-13T03:48:30.402Z,-4.01
2022-12-13T03:54:02.154Z,-4.19
2022-12-13T03:59:34.102Z,-4.18
2022-12-13T04:05:05.541Z,-4.08
2022-12-13T04:10:37.273Z,-4.28
2022-12-13T04:16:09.199Z,-4.13
2022-12-13T04:21:40.891Z,-4.25
2022-12-13T04:27:18.828Z,-4.04
2022-12-13T04:32:50.744Z,-4.19
2022-12-13T04:38:22.321Z,-4.02
2022-12-13T04:43:54.042Z,-4.03
2022-12-13T04:49:25.982Z,-4.09
2022-12-13T04:54:57.505Z,-4.29
2022-12-13T05:00:29.367Z,-4.49
2022-12-13T05:06:01.369Z,-4.39
2022-12-13T05:11:35.758Z,-4.05
2022-12-13T05:17:04.393Z,-4.12
2022-12-13T05:22:36.238Z,-4.08
2022-12-13T05:28:27.383Z,-3.96
2022-12-13T05:33:45.935Z,-3.9
2022-12-13T05:39:28.668Z,-4.02
2022-12-13T05:44:49.605Z,-4.0
2022-12-13T05:50:21.131Z,-4.08
2022-12-13T05:55:53.723Z,-4.54
2022-12-13T06:01:24.658Z,-4.22
2022-12-13T06:06:56.482Z,-4.09
2022-12-13T06:12:31.370Z,-4.36
2022-12-13T06:17:59.935Z,-4.22
2022-12-13T06:23:31.449Z,-4.22
2022-12-13T06:29:07.529Z,-4.19
2022-12-13T06:34:39.412Z,-4.17
2022-12-13T06:40:11.038Z,-4.47
2022-12-13T06:45:42.888Z,-4.37
2022-12-13T06:51:22.708Z,-4.44
2022-12-13T06:56:46.146Z,-4.32
2022-12-13T07:02:25.391Z,-4.25
2022-12-13T07:07:49.771Z,-4.18
2022-12-13T07:13:21.577Z,-4.33
2022-12-13T07:18:52.999Z,-4.24
2022-12-13T07:24:25.222Z,-4.25
2022-12-13T07:30:00.963Z,-4.13
2022-12-13T07:35:37.291Z,-4.15
2022-12-13T07:41:04.364Z,-4.2
2022-12-13T07:46:36.099Z,-4.27
2022-12-13T07:52:08.025Z,-4.27
2022-12-13T07:57:39.689Z,-4.13
2022-12-13T08:03:16.531Z,-4.0
2022-12-13T08:08:43.044Z,-3.93
2022-12-13T08:14:14.709Z,-3.92
2022-12-13T08:19:46.416Z,-3.89
2022-12-13T08:25:18.333Z,-3.75
2022-12-13T08:30:54.408Z,-3.94
2022-12-13T08:36:25.966Z,-3.67
2022-12-13T08:41:57.711Z,-3.99
2022-12-13T08:47:29.589Z,-3.88
2022-12-13T08:53:01.313Z,-3.62
2022-12-13T08:58:33.185Z,-3.64
2022-12-13T09:04:04.567Z,-3.89
2022-12-13T09:09:36.905Z,-3.8
2022-12-13T09:15:21.751Z,-3.88
2022-12-13T09:20:40.672Z,-3.67
2022-12-13T09:26:11.501Z,-3.55
2022-12-13T09:31:52.745Z,-3.62
2022-12-13T09:37:22.941Z,-3.51
2022-12-13T09:43:00.109Z,-3.14
2022-12-13T09:48:23.191Z,-2.88
2022-12-13T09:53:54.407Z,-2.97
2022-12-13T09:59:26.380Z,-2.88
2022-12-13T10:05:00.687Z,-2.79
2022-12-13T10:10:30.241Z,-2.67
2022-12-13T10:16:02.223Z,-2.83
2022-12-13T10:21:33.340Z,-2.64
2022-12-13T10:27:04.870Z,-2.53
2022-12-13T10:32:41.506Z,-2.59
2022-12-13T10:38:13.004Z,-2.54
2022-12-13T10:43:44.632Z,-2.07
2022-12-13T10:49:16.285Z,-2.29
2022-12-13T10:54:48.241Z,-1.8
2022-12-13T11:00:19.712Z,-1.69
2022-12-13T11:05:51.566Z,-1.83
2022-12-13T11:11:23.388Z,-1.53
2022-12-13T11:16:55.254Z,-1.66
2022-12-13T11:22:26.557Z,-1.41
2022-12-13T11:27:58.270Z,-1.48
2022-12-13T11:33:34.596Z,-1.24
2022-12-13T11:39:06.528Z,-0.86
2022-12-13T11:44:39.182Z,-0.72
2022-12-13T11:50:09.782Z,-0.78
2022-12-13T11:55:41.273Z,-0.88
2022-12-13T12:01:12.980Z,-1.06
2022-12-13T12:06:44.856Z,-0.87
2022-12-13T12:12:16.516Z,-0.77
2022-12-13T12:17:48.161Z,-0.96
2022-12-13T12:23:19.879Z,-0.85
2022-12-13T12:28:51.593Z,-0.52
2022-12-13T12:34:28.096Z,-0.47
2022-12-13T12:39:59.554Z,-0.56
2022-12-13T12:45:56.151Z,-0.27
2022-12-13T12:51:02.935Z,-0.22
2022-12-13T12:56:34.640Z,-0.54
2022-12-13T13:02:06.496Z,-0.69
2022-12-13T13:07:39.552Z,-0.35
2022-12-13T13:13:11.857Z,-0.68
2022-12-13T13:18:41.626Z,-0.68
2022-12-13T13:24:13.302Z,-0.25
2022-12-13T13:29:45.069Z,-0.2
2022-12-13T13:35:23.131Z,-0.38
2022-12-13T13:40:55.139Z,-0.32
2022-12-13T13:46:26.674Z,-0.13
2022-12-13T13:58:00.254Z,-0.27
2022-12-13T14:03:01.723Z,-0.29
2022-12-13T14:08:33.658Z,0.02
2022-12-13T14:14:05.147Z,-0.02
2022-12-13T14:19:37.772Z,-0.01
2022-12-13T14:25:08.631Z,-0.23
2022-12-13T14:30:40.487Z,-0.05
2022-12-13T14:36:18.433Z,-0.04
2022-12-13T14:41:50.150Z,-0.12
2022-12-13T14:47:21.889Z,0.02
2022-12-13T14:52:53.761Z,0.1
2022-12-13T14:58:25.601Z,0.25
2022-12-13T15:03:59.557Z,0.27
2022-12-13T15:09:29.044Z,0.31
2022-12-13T15:15:01.362Z,0.2
2022-12-13T15:20:32.579Z,0.16
2022-12-13T15:26:03.982Z,0.13
2022-12-13T15:31:35.699Z,0.32
2022-12-13T15:37:28.005Z,0.07
2022-12-13T15:42:45.589Z,0.06
2022-12-13T15:48:17.279Z,0.15
2022-12-13T15:53:49.289Z,-0.01
2022-12-13T15:59:21.125Z,0.0
2022-12-13T16:04:52.946Z,0.03
2022-12-13T16:10:24.189Z,-0.1
2022-12-13T16:15:59.683Z,-0.2
2022-12-13T16:21:27.631Z,-0.1
2022-12-13T16:26:59.674Z,-0.12
2022-12-13T16:32:33.320Z,-0.06
2022-12-13T16:38:09.458Z,-0.26
2022-12-13T16:43:39.344Z,-0.19
2022-12-13T16:49:10.649Z,-0.38
2022-12-13T16:54:42.364Z,-0.39
2022-12-13T17:00:14.118Z,-0.43
2022-12-13T17:05:45.833Z,-0.43
2022-12-13T17:11:18.211Z,-0.81
2022-12-13T17:16:49.405Z,-0.72
2022-12-13T17:22:21.108Z,-0.65
2022-12-13T17:27:52.952Z,-0.61
2022-12-13T17:33:24.764Z,-0.93
2022-12-13T17:39:02.632Z,-0.97
2022-12-13T17:44:34.448Z,-1.14
2022-12-13T17:50:06.191Z,-1.12
2022-12-13T17:55:37.778Z,-1.3
2022-12-13T18:01:09.723Z,-1.16
2022-12-13T18:06:41.192Z,-1.19
2022-12-13T18:12:12.966Z,-1.32
2022-12-13T18:18:10.480Z,-1.49
2022-12-13T18:23:16.901Z,-1.42
2022-12-13T18:28:48.152Z,-1.59
2022-12-13T18:34:20.112Z,-1.53
2022-12-13T18:39:55.991Z,-1.43
2022-12-13T18:45:28.109Z,-1.4
2022-12-13T18:50:59.840Z,-1.47
2022-12-13T18:56:31.132Z,-1.26
2022-12-13T19:02:03.131Z,-1.38
2022-12-13T19:07:34.856Z,-1.72
2022-12-13T19:13:06.306Z,-1.54
2022-12-13T19:18:38.011Z,-1.52
2022-12-13T19:24:10.905Z,-1.75
2022-12-13T19:29:41.495Z,-1.72
2022-12-13T19:35:13.182Z,-1.74
2022-12-13T19:40:49.305Z,-1.71
2022-12-13T19:46:21.114Z,-1.54
2022-12-13T19:51:52.805Z,-1.7
2022-12-13T19:57:24.536Z,-1.54
2022-12-13T20:02:56.272Z,-1.46
2022-12-13T20:08:28.357Z,-1.48
2022-12-13T20:13:59.700Z,-1.5
2022-12-13T20:19:31.440Z,-1.52
2022-12-13T20:25:03.308Z,-1.66
2022-12-13T20:30:34.837Z,-1.61
2022-12-13T20:41:42.733Z,-1.6
2022-12-13T20:47:14.489Z,-1.31
2022-12-13T20:52:50.627Z,-1.32
2022-12-13T20:58:17.949Z,-1.44
2022-12-13T21:03:49.897Z,-1.56
2022-12-13T21:09:21.762Z,-1.93
2022-12-13T21:14:53.225Z,-1.82
2022-12-13T21:20:25.268Z,-1.81
2022-12-13T21:25:56.514Z,-1.82
2022-12-13T21:31:28.328Z,-1.72
2022-12-13T21:36:59.985Z,-1.79
2022-12-13T21:42:36.064Z,-1.93
2022-12-13T21:48:07.984Z,-1.74
2022-12-13T21:53:39.507Z,-1.81
2022-12-13T21:59:11.343Z,-1.81
2022-12-13T22:04:42.973Z,-1.75
2022-12-13T22:10:14.810Z,-1.74
2022-12-13T22:15:46.457Z,-1.86
2022-12-13T22:21:18.125Z,-1.78
2022-12-13T22:26:49.862Z,-1.56
2022-12-13T22:32:21.646Z,-1.66
2022-12-13T22:37:54.957Z,-1.26
2022-12-13T22:43:31.497Z,-1.16
2022-12-13T22:49:03.185Z,-1.41
2022-12-13T22:54:34.935Z,-1.48
2022-12-13T23:00:06.633Z,-1.52
2022-12-13T23:05:38.394Z,-1.32
2022-12-13T23:11:10.105Z,-1.47
2022-12-13T23:16:41.851Z,-1.24
2022-12-13T23:22:13.540Z,-1.13
2022-12-13T23:27:45.269Z,-1.1
2022-12-13T23:33:16.992Z,-1.16
2022-12-13T23:38:49.414Z,-0.95
2022-12-13T23:44:26.789Z,-1.16
2022-12-13T23:49:58.522Z,-1.02
2022-12-13T23:55:30.234Z,-1.1
